sensor_id;sensor_type;location;lat;lon;timestamp;temperature;humidity
52943;DHT22;38809;53.300;6.614;2022-11-13T00:02:11;5.70;99.90
52943;DHT22;38809;53.300;6.614;2022-11-13T00:04:36;5.60;99.90
52943;DHT22;38809;53.300;6.614;2022-11-13T00:07:02;5.60;99.90
52943;DHT22;38809;53.300;6.614;2022-11-13T00:09:28;5.60;99.90
52943;DHT22;38809;53.300;6.614;2022-11-13T00:11:53;5.50;99.90
52943;DHT22;38809;53.300;6.614;2022-11-13T00:14:19;5.80;99.90
52943;DHT22;38809;53.300;6.614;2022-11-13T00:16:45;5.80;99.90
52943;DHT22;38809;53.300;6.614;2022-11-13T00:19:11;5.80;99.90
52943;DHT22;38809;53.300;6.614;2022-11-13T00:21:36;5.90;99.90
52943;DHT22;38809;53.300;6.614;2022-11-13T00:24:02;5.90;99.90
52943;DHT22;38809;53.300;6.614;2022-11-13T00:26:29;5.80;99.90
52943;DHT22;38809;53.300;6.614;2022-11-13T00:29:00;5.70;99.90
52943;DHT22;38809;53.300;6.614;2022-11-13T00:31:27;5.70;99.90
52943;DHT22;38809;53.300;6.614;2022-11-13T00:33:53;5.80;99.90
52943;DHT22;38809;53.300;6.614;2022-11-13T00:36:21;5.80;99.90
52943;DHT22;38809;53.300;6.614;2022-11-13T00:38:47;5.90;99.90
52943;DHT22;38809;53.300;6.614;2022-11-13T00:41:13;6.00;99.90
52943;DHT22;38809;53.300;6.614;2022-11-13T00:43:39;6.00;99.90
52943;DHT22;38809;53.300;6.614;2022-11-13T00:46:05;6.00;99.90
52943;DHT22;38809;53.300;6.614;2022-11-13T00:48:32;7.40;99.90
52943;DHT22;38809;53.300;6.614;2022-11-13T00:50:58;6.10;99.90
52943;DHT22;38809;53.300;6.614;2022-11-13T00:53:24;6.10;99.90
52943;DHT22;38809;53.300;6.614;2022-11-13T00:55:50;6.10;99.90
52943;DHT22;38809;53.300;6.614;2022-11-13T00:58:15;6.20;99.90
52943;DHT22;38809;53.300;6.614;2022-11-13T01:00:42;6.60;99.90
52943;DHT22;38809;53.300;6.614;2022-11-13T01:03:09;6.50;99.90
52943;DHT22;38809;53.300;6.614;2022-11-13T01:05:39;6.20;99.90
52943;DHT22;38809;53.300;6.614;2022-11-13T01:08:05;6.30;99.90
52943;DHT22;38809;53.300;6.614;2022-11-13T01:10:32;6.30;99.90
52943;DHT22;38809;53.300;6.614;2022-11-13T01:12:58;6.60;99.90
52943;DHT22;38809;53.300;6.614;2022-11-13T01:15:24;6.70;99.90
52943;DHT22;38809;53.300;6.614;2022-11-13T01:17:50;6.30;99.90
52943;DHT22;38809;53.300;6.614;2022-11-13T01:20:16;6.30;99.90
52943;DHT22;38809;53.300;6.614;2022-11-13T01:22:42;6.40;99.90
52943;DHT22;38809;53.300;6.614;2022-11-13T01:25:08;6.40;99.90
52943;DHT22;38809;53.300;6.614;2022-11-13T01:27:37;7.60;99.90
52943;DHT22;38809;53.300;6.614;2022-11-13T01:30:03;6.40;99.90
52943;DHT22;38809;53.300;6.614;2022-11-13T01:32:29;6.40;99.90
52943;DHT22;38809;53.300;6.614;2022-11-13T01:34:55;6.40;99.90
52943;DHT22;38809;53.300;6.614;2022-11-13T01:37:21;6.40;99.90
52943;DHT22;38809;53.300;6.614;2022-11-13T01:39:46;6.40;99.90
52943;DHT22;38809;53.300;6.614;2022-11-13T01:42:12;6.40;99.90
52943;DHT22;38809;53.300;6.614;2022-11-13T01:44:58;6.60;99.90
52943;DHT22;38809;53.300;6.614;2022-11-13T01:47:28;6.60;99.90
52943;DHT22;38809;53.300;6.614;2022-11-13T01:49:57;6.60;99.90
52943;DHT22;38809;53.300;6.614;2022-11-13T01:52:30;6.60;99.90
52943;DHT22;38809;53.300;6.614;2022-11-13T01:55:08;6.70;99.90
52943;DHT22;38809;53.300;6.614;2022-11-13T01:57:36;6.60;99.90
52943;DHT22;38809;53.300;6.614;2022-11-13T02:00:06;6.80;99.90
52943;DHT22;38809;53.300;6.614;2022-11-13T02:02:32;6.60;99.90
52943;DHT22;38809;53.300;6.614;2022-11-13T02:04:58;6.60;99.90
52943;DHT22;38809;53.300;6.614;2022-11-13T02:07:24;7.00;99.90
52943;DHT22;38809;53.300;6.614;2022-11-13T02:09:51;6.50;99.90
52943;DHT22;38809;53.300;6.614;2022-11-13T02:12:26;6.60;99.90
52943;DHT22;38809;53.300;6.614;2022-11-13T02:14:53;6.70;99.90
52943;DHT22;38809;53.300;6.614;2022-11-13T02:17:26;7.20;99.90
52943;DHT22;38809;53.300;6.614;2022-11-13T02:19:57;6.60;99.90
52943;DHT22;38809;53.300;6.614;2022-11-13T02:25:05;6.80;99.90
52943;DHT22;38809;53.300;6.614;2022-11-13T02:27:46;6.80;99.90
52943;DHT22;38809;53.300;6.614;2022-11-13T02:32:51;6.60;99.90
52943;DHT22;38809;53.300;6.614;2022-11-13T02:35:34;6.60;99.90
52943;DHT22;38809;53.300;6.614;2022-11-13T02:38:04;6.70;99.90
52943;DHT22;38809;53.300;6.614;2022-11-13T02:40:31;6.60;99.90
52943;DHT22;38809;53.300;6.614;2022-11-13T02:42:57;6.60;99.90
52943;DHT22;38809;53.300;6.614;2022-11-13T02:45:23;6.40;99.90
52943;DHT22;38809;53.300;6.614;2022-11-13T02:47:49;7.70;99.90
52943;DHT22;38809;53.300;6.614;2022-11-13T02:50:15;6.40;99.90
52943;DHT22;38809;53.300;6.614;2022-11-13T02:52:41;6.40;99.90
52943;DHT22;38809;53.300;6.614;2022-11-13T02:55:07;6.40;99.90
52943;DHT22;38809;53.300;6.614;2022-11-13T02:57:33;6.40;99.90
52943;DHT22;38809;53.300;6.614;2022-11-13T02:59:59;6.60;99.90
52943;DHT22;38809;53.300;6.614;2022-11-13T03:02:24;6.40;99.90
52943;DHT22;38809;53.300;6.614;2022-11-13T03:04:50;6.30;99.90
52943;DHT22;38809;53.300;6.614;2022-11-13T03:07:15;6.50;99.90
52943;DHT22;38809;53.300;6.614;2022-11-13T03:09:41;6.40;99.90
52943;DHT22;38809;53.300;6.614;2022-11-13T03:12:08;6.30;99.90
52943;DHT22;38809;53.300;6.614;2022-11-13T03:14:33;6.40;99.90
52943;DHT22;38809;53.300;6.614;2022-11-13T03:16:59;8.00;99.90
52943;DHT22;38809;53.300;6.614;2022-11-13T03:19:25;6.70;99.90
52943;DHT22;38809;53.300;6.614;2022-11-13T03:21:51;6.40;99.90
52943;DHT22;38809;53.300;6.614;2022-11-13T03:24:17;6.60;99.90
52943;DHT22;38809;53.300;6.614;2022-11-13T03:26:42;6.50;99.90
52943;DHT22;38809;53.300;6.614;2022-11-13T03:29:08;6.90;99.90
52943;DHT22;38809;53.300;6.614;2022-11-13T03:31:34;6.40;99.90
52943;DHT22;38809;53.300;6.614;2022-11-13T03:33:59;6.40;99.90
52943;DHT22;38809;53.300;6.614;2022-11-13T03:36:25;6.40;99.90
52943;DHT22;38809;53.300;6.614;2022-11-13T03:38:51;6.50;99.90
52943;DHT22;38809;53.300;6.614;2022-11-13T03:41:17;6.50;99.90
52943;DHT22;38809;53.300;6.614;2022-11-13T03:43:42;6.60;99.90
52943;DHT22;38809;53.300;6.614;2022-11-13T03:46:08;6.60;99.90
52943;DHT22;38809;53.300;6.614;2022-11-13T03:48:34;6.60;99.90
52943;DHT22;38809;53.300;6.614;2022-11-13T03:51:00;6.60;99.90
52943;DHT22;38809;53.300;6.614;2022-11-13T03:53:26;6.60;99.90
52943;DHT22;38809;53.300;6.614;2022-11-13T03:55:52;6.60;99.90
52943;DHT22;38809;53.300;6.614;2022-11-13T03:58:18;7.00;99.90
52943;DHT22;38809;53.300;6.614;2022-11-13T04:00:44;6.80;99.90
52943;DHT22;38809;53.300;6.614;2022-11-13T04:03:10;6.50;99.90
52943;DHT22;38809;53.300;6.614;2022-11-13T04:05:36;6.60;99.90
52943;DHT22;38809;53.300;6.614;2022-11-13T04:08:02;6.60;99.90
52943;DHT22;38809;53.300;6.614;2022-11-13T04:10:28;6.60;99.90
52943;DHT22;38809;53.300;6.614;2022-11-13T04:12:54;6.70;99.90
52943;DHT22;38809;53.300;6.614;2022-11-13T04:15:20;6.80;99.90
52943;DHT22;38809;53.300;6.614;2022-11-13T04:17:45;6.70;99.90
52943;DHT22;38809;53.300;6.614;2022-11-13T04:20:12;6.70;99.90
52943;DHT22;38809;53.300;6.614;2022-11-13T04:22:38;6.70;99.90
52943;DHT22;38809;53.300;6.614;2022-11-13T04:25:04;6.70;99.90
52943;DHT22;38809;53.300;6.614;2022-11-13T04:27:30;6.60;99.90
52943;DHT22;38809;53.300;6.614;2022-11-13T04:29:55;6.60;99.90
52943;DHT22;38809;53.300;6.614;2022-11-13T04:32:21;6.60;99.90
52943;DHT22;38809;53.300;6.614;2022-11-13T04:34:47;6.60;99.90
52943;DHT22;38809;53.300;6.614;2022-11-13T04:37:12;6.70;99.90
52943;DHT22;38809;53.300;6.614;2022-11-13T04:39:38;6.70;99.90
52943;DHT22;38809;53.300;6.614;2022-11-13T04:42:04;6.70;99.90
52943;DHT22;38809;53.300;6.614;2022-11-13T04:44:48;6.70;99.90
52943;DHT22;38809;53.300;6.614;2022-11-13T04:47:14;7.40;99.90
52943;DHT22;38809;53.300;6.614;2022-11-13T04:49:40;6.60;99.90
52943;DHT22;38809;53.300;6.614;2022-11-13T04:52:05;6.70;99.90
52943;DHT22;38809;53.300;6.614;2022-11-13T04:54:31;6.70;99.90
52943;DHT22;38809;53.300;6.614;2022-11-13T04:56:57;6.70;99.90
52943;DHT22;38809;53.300;6.614;2022-11-13T04:59:22;6.90;99.90
52943;DHT22;38809;53.300;6.614;2022-11-13T05:01:49;6.50;99.90
52943;DHT22;38809;53.300;6.614;2022-11-13T05:04:15;6.60;99.90
52943;DHT22;38809;53.300;6.614;2022-11-13T05:06:41;6.60;99.90
52943;DHT22;38809;53.300;6.614;2022-11-13T05:09:07;7.60;99.90
52943;DHT22;38809;53.300;6.614;2022-11-13T05:11:33;6.90;99.90
52943;DHT22;38809;53.300;6.614;2022-11-13T05:13:59;7.80;99.90
52943;DHT22;38809;53.300;6.614;2022-11-13T05:16:24;6.50;99.90
52943;DHT22;38809;53.300;6.614;2022-11-13T05:18:50;7.10;99.90
52943;DHT22;38809;53.300;6.614;2022-11-13T05:21:16;6.60;99.90
52943;DHT22;38809;53.300;6.614;2022-11-13T05:23:41;6.50;99.90
52943;DHT22;38809;53.300;6.614;2022-11-13T05:26:11;6.60;99.90
52943;DHT22;38809;53.300;6.614;2022-11-13T05:28:38;6.80;99.90
52943;DHT22;38809;53.300;6.614;2022-11-13T05:31:12;6.60;99.90
52943;DHT22;38809;53.300;6.614;2022-11-13T05:33:39;6.60;99.90
52943;DHT22;38809;53.300;6.614;2022-11-13T05:36:07;6.60;99.90
52943;DHT22;38809;53.300;6.614;2022-11-13T05:38:33;6.50;99.90
52943;DHT22;38809;53.300;6.614;2022-11-13T05:41:11;6.30;99.90
52943;DHT22;38809;53.300;6.614;2022-11-13T05:43:38;6.30;99.90
52943;DHT22;38809;53.300;6.614;2022-11-13T05:48:45;6.10;99.90
52943;DHT22;38809;53.300;6.614;2022-11-13T05:51:24;6.10;99.90
52943;DHT22;38809;53.300;6.614;2022-11-13T05:53:50;6.10;99.90
52943;DHT22;38809;53.300;6.614;2022-11-13T05:56:27;6.20;99.90
52943;DHT22;38809;53.300;6.614;2022-11-13T05:58:54;7.30;99.90
52943;DHT22;38809;53.300;6.614;2022-11-13T06:01:29;6.20;99.90
52943;DHT22;38809;53.300;6.614;2022-11-13T06:03:57;6.10;99.90
52943;DHT22;38809;53.300;6.614;2022-11-13T06:06:24;6.10;99.90
52943;DHT22;38809;53.300;6.614;2022-11-13T06:08:51;6.20;99.90
52943;DHT22;38809;53.300;6.614;2022-11-13T06:11:20;6.20;99.90
52943;DHT22;38809;53.300;6.614;2022-11-13T06:13:46;6.80;99.90
52943;DHT22;38809;53.300;6.614;2022-11-13T06:16:14;6.10;99.90
52943;DHT22;38809;53.300;6.614;2022-11-13T06:18:41;7.00;99.90
52943;DHT22;38809;53.300;6.614;2022-11-13T06:21:10;5.90;99.90
52943;DHT22;38809;53.300;6.614;2022-11-13T06:23:38;5.60;99.90
52943;DHT22;38809;53.300;6.614;2022-11-13T06:26:25;5.70;99.90
52943;DHT22;38809;53.300;6.614;2022-11-13T06:28:51;6.10;99.90
52943;DHT22;38809;53.300;6.614;2022-11-13T06:31:23;5.70;99.90
52943;DHT22;38809;53.300;6.614;2022-11-13T06:33:49;5.90;99.90
52943;DHT22;38809;53.300;6.614;2022-11-13T06:36:20;5.60;99.90
52943;DHT22;38809;53.300;6.614;2022-11-13T06:38:46;5.60;99.90
52943;DHT22;38809;53.300;6.614;2022-11-13T06:41:17;6.30;99.90
52943;DHT22;38809;53.300;6.614;2022-11-13T06:43:43;5.40;99.90
52943;DHT22;38809;53.300;6.614;2022-11-13T06:46:23;5.40;99.90
52943;DHT22;38809;53.300;6.614;2022-11-13T06:48:49;5.30;99.90
52943;DHT22;38809;53.300;6.614;2022-11-13T06:51:18;5.30;99.90
52943;DHT22;38809;53.300;6.614;2022-11-13T06:53:44;5.30;99.90
52943;DHT22;38809;53.300;6.614;2022-11-13T06:56:10;5.30;99.90
52943;DHT22;38809;53.300;6.614;2022-11-13T06:58:36;5.30;99.90
52943;DHT22;38809;53.300;6.614;2022-11-13T07:01:10;5.40;99.90
52943;DHT22;38809;53.300;6.614;2022-11-13T07:03:37;5.50;99.90
52943;DHT22;38809;53.300;6.614;2022-11-13T07:06:08;6.70;99.90
52943;DHT22;38809;53.300;6.614;2022-11-13T07:08:34;5.60;99.90
52943;DHT22;38809;53.300;6.614;2022-11-13T07:11:00;6.10;99.90
52943;DHT22;38809;53.300;6.614;2022-11-13T07:13:27;6.90;99.90
52943;DHT22;38809;53.300;6.614;2022-11-13T07:15:53;5.60;99.90
52943;DHT22;38809;53.300;6.614;2022-11-13T07:18:19;6.20;99.90
52943;DHT22;38809;53.300;6.614;2022-11-13T07:20:47;5.70;99.90
52943;DHT22;38809;53.300;6.614;2022-11-13T07:23:13;5.60;99.90
52943;DHT22;38809;53.300;6.614;2022-11-13T07:25:38;5.80;99.90
52943;DHT22;38809;53.300;6.614;2022-11-13T07:28:04;7.10;99.90
52943;DHT22;38809;53.300;6.614;2022-11-13T07:30:30;5.70;99.90
52943;DHT22;38809;53.300;6.614;2022-11-13T07:32:59;5.70;99.90
52943;DHT22;38809;53.300;6.614;2022-11-13T07:35:25;5.80;99.90
52943;DHT22;38809;53.300;6.614;2022-11-13T07:37:54;5.70;99.90
52943;DHT22;38809;53.300;6.614;2022-11-13T07:40:20;6.90;99.90
52943;DHT22;38809;53.300;6.614;2022-11-13T07:42:46;5.80;99.90
52943;DHT22;38809;53.300;6.614;2022-11-13T07:45:11;5.90;99.90
52943;DHT22;38809;53.300;6.614;2022-11-13T07:47:37;5.80;99.90
52943;DHT22;38809;53.300;6.614;2022-11-13T07:50:04;5.70;99.90
52943;DHT22;38809;53.300;6.614;2022-11-13T07:52:29;5.80;99.90
52943;DHT22;38809;53.300;6.614;2022-11-13T07:54:55;5.90;99.90
52943;DHT22;38809;53.300;6.614;2022-11-13T07:57:21;6.10;99.90
52943;DHT22;38809;53.300;6.614;2022-11-13T07:59:47;6.10;99.90
52943;DHT22;38809;53.300;6.614;2022-11-13T08:02:14;6.40;99.90
52943;DHT22;38809;53.300;6.614;2022-11-13T08:04:40;6.20;99.90
52943;DHT22;38809;53.300;6.614;2022-11-13T08:07:06;6.30;99.90
52943;DHT22;38809;53.300;6.614;2022-11-13T08:09:32;6.30;99.90
52943;DHT22;38809;53.300;6.614;2022-11-13T08:11:58;6.40;99.90
52943;DHT22;38809;53.300;6.614;2022-11-13T08:14:23;6.40;99.90
52943;DHT22;38809;53.300;6.614;2022-11-13T08:16:49;6.40;99.90
52943;DHT22;38809;53.300;6.614;2022-11-13T08:19:15;7.20;99.90
52943;DHT22;38809;53.300;6.614;2022-11-13T08:21:40;6.50;99.90
52943;DHT22;38809;53.300;6.614;2022-11-13T08:24:08;6.50;99.90
52943;DHT22;38809;53.300;6.614;2022-11-13T08:26:36;7.60;99.90
52943;DHT22;38809;53.300;6.614;2022-11-13T08:29:02;6.70;99.90
52943;DHT22;38809;53.300;6.614;2022-11-13T08:31:28;6.60;99.90
52943;DHT22;38809;53.300;6.614;2022-11-13T08:33:54;6.70;99.90
52943;DHT22;38809;53.300;6.614;2022-11-13T08:36:19;6.70;99.90
52943;DHT22;38809;53.300;6.614;2022-11-13T08:38:47;6.80;99.90
52943;DHT22;38809;53.300;6.614;2022-11-13T08:41:13;7.90;99.90
52943;DHT22;38809;53.300;6.614;2022-11-13T08:43:39;7.00;99.90
52943;DHT22;38809;53.300;6.614;2022-11-13T08:46:04;7.10;99.90
52943;DHT22;38809;53.300;6.614;2022-11-13T08:48:30;7.10;99.90
52943;DHT22;38809;53.300;6.614;2022-11-13T08:50:56;7.70;99.90
52943;DHT22;38809;53.300;6.614;2022-11-13T08:53:23;7.30;99.90
52943;DHT22;38809;53.300;6.614;2022-11-13T08:55:48;7.30;99.90
52943;DHT22;38809;53.300;6.614;2022-11-13T08:58:14;7.40;99.90
52943;DHT22;38809;53.300;6.614;2022-11-13T09:00:40;7.50;99.90
52943;DHT22;38809;53.300;6.614;2022-11-13T09:03:08;8.00;99.90
52943;DHT22;38809;53.300;6.614;2022-11-13T09:05:35;8.80;99.90
52943;DHT22;38809;53.300;6.614;2022-11-13T09:08:01;7.90;99.90
52943;DHT22;38809;53.300;6.614;2022-11-13T09:10:28;8.00;99.90
52943;DHT22;38809;53.300;6.614;2022-11-13T09:13:01;8.10;99.90
52943;DHT22;38809;53.300;6.614;2022-11-13T09:15:28;8.40;99.90
52943;DHT22;38809;53.300;6.614;2022-11-13T09:17:58;8.60;99.90
52943;DHT22;38809;53.300;6.614;2022-11-13T09:20:26;8.70;99.90
52943;DHT22;38809;53.300;6.614;2022-11-13T09:23:01;8.90;99.90
52943;DHT22;38809;53.300;6.614;2022-11-13T09:25:29;9.00;99.90
52943;DHT22;38809;53.300;6.614;2022-11-13T09:27:57;9.20;99.90
52943;DHT22;38809;53.300;6.614;2022-11-13T09:30:24;9.40;99.90
52943;DHT22;38809;53.300;6.614;2022-11-13T09:32:53;9.50;99.90
52943;DHT22;38809;53.300;6.614;2022-11-13T09:35:20;9.60;99.90
52943;DHT22;38809;53.300;6.614;2022-11-13T09:38:07;9.70;99.90
52943;DHT22;38809;53.300;6.614;2022-11-13T09:40:56;9.70;99.90
52943;DHT22;38809;53.300;6.614;2022-11-13T09:45:50;9.50;99.90
52943;DHT22;38809;53.300;6.614;2022-11-13T09:48:37;9.60;99.90
52943;DHT22;38809;53.300;6.614;2022-11-13T09:51:13;9.60;99.90
52943;DHT22;38809;53.300;6.614;2022-11-13T09:53:39;9.60;99.90
52943;DHT22;38809;53.300;6.614;2022-11-13T09:56:15;9.80;99.90
52943;DHT22;38809;53.300;6.614;2022-11-13T09:59:23;9.60;99.90
52943;DHT22;38809;53.300;6.614;2022-11-13T10:05:03;9.90;99.90
52943;DHT22;38809;53.300;6.614;2022-11-13T10:07:53;9.80;99.90
52943;DHT22;38809;53.300;6.614;2022-11-13T10:13:06;9.90;99.90
52943;DHT22;38809;53.300;6.614;2022-11-13T10:15:35;10.10;99.90
52943;DHT22;38809;53.300;6.614;2022-11-13T10:18:11;10.60;99.90
52943;DHT22;38809;53.300;6.614;2022-11-13T10:20:48;10.30;99.90
52943;DHT22;38809;53.300;6.614;2022-11-13T10:23:19;10.40;99.90
52943;DHT22;38809;53.300;6.614;2022-11-13T10:25:46;10.40;99.90
52943;DHT22;38809;53.300;6.614;2022-11-13T10:28:22;10.20;99.90
52943;DHT22;38809;53.300;6.614;2022-11-13T10:30:49;10.30;99.90
52943;DHT22;38809;53.300;6.614;2022-11-13T10:33:20;10.60;99.90
52943;DHT22;38809;53.300;6.614;2022-11-13T10:38:38;10.40;99.90
52943;DHT22;38809;53.300;6.614;2022-11-13T10:41:13;10.70;99.90
52943;DHT22;38809;53.300;6.614;2022-11-13T10:43:55;10.70;99.90
52943;DHT22;38809;53.300;6.614;2022-11-13T10:46:24;10.80;99.90
52943;DHT22;38809;53.300;6.614;2022-11-13T10:48:50;10.90;99.90
52943;DHT22;38809;53.300;6.614;2022-11-13T10:51:23;10.90;99.90
52943;DHT22;38809;53.300;6.614;2022-11-13T10:53:50;10.80;99.90
52943;DHT22;38809;53.300;6.614;2022-11-13T11:01:36;11.10;99.90
52943;DHT22;38809;53.300;6.614;2022-11-13T11:04:06;11.00;99.90
52943;DHT22;38809;53.300;6.614;2022-11-13T11:06:34;11.20;99.90
52943;DHT22;38809;53.300;6.614;2022-11-13T11:11:38;10.80;99.90
52943;DHT22;38809;53.300;6.614;2022-11-13T11:14:28;10.70;99.90
52943;DHT22;38809;53.300;6.614;2022-11-13T11:16:58;10.70;99.90
52943;DHT22;38809;53.300;6.614;2022-11-13T11:19:26;10.70;99.90
52943;DHT22;38809;53.300;6.614;2022-11-13T11:22:05;10.70;99.90
52943;DHT22;38809;53.300;6.614;2022-11-13T11:24:35;10.80;99.90
52943;DHT22;38809;53.300;6.614;2022-11-13T11:27:09;10.80;99.90
52943;DHT22;38809;53.300;6.614;2022-11-13T11:35:27;10.80;99.90
52943;DHT22;38809;53.300;6.614;2022-11-13T11:38:14;10.90;99.90
52943;DHT22;38809;53.300;6.614;2022-11-13T11:40:43;11.00;99.90
52943;DHT22;38809;53.300;6.614;2022-11-13T11:45:49;11.00;99.90
52943;DHT22;38809;53.300;6.614;2022-11-13T11:48:17;10.90;99.90
52943;DHT22;38809;53.300;6.614;2022-11-13T11:51:02;11.10;99.90
52943;DHT22;38809;53.300;6.614;2022-11-13T12:09:43;11.20;99.90
52943;DHT22;38809;53.300;6.614;2022-11-13T12:12:42;11.40;99.90
52943;DHT22;38809;53.300;6.614;2022-11-13T12:20:49;11.60;99.90
52943;DHT22;38809;53.300;6.614;2022-11-13T12:26:16;11.60;99.90
52943;DHT22;38809;53.300;6.614;2022-11-13T12:29:06;11.70;99.90
52943;DHT22;38809;53.300;6.614;2022-11-13T12:31:48;11.80;99.90
52943;DHT22;38809;53.300;6.614;2022-11-13T12:34:25;11.90;99.90
52943;DHT22;38809;53.300;6.614;2022-11-13T12:36:53;11.80;99.90
52943;DHT22;38809;53.300;6.614;2022-11-13T12:42:55;11.80;99.90
52943;DHT22;38809;53.300;6.614;2022-11-13T12:45:08;11.90;99.90
52943;DHT22;38809;53.300;6.614;2022-11-13T12:47:36;12.00;99.90
52943;DHT22;38809;53.300;6.614;2022-11-13T12:53:02;11.90;99.90
52943;DHT22;38809;53.300;6.614;2022-11-13T12:55:33;12.00;99.90
52943;DHT22;38809;53.300;6.614;2022-11-13T12:58:22;11.90;99.90
52943;DHT22;38809;53.300;6.614;2022-11-13T13:01:25;12.00;99.90
52943;DHT22;38809;53.300;6.614;2022-11-13T13:04:25;12.00;99.90
52943;DHT22;38809;53.300;6.614;2022-11-13T13:12:38;12.00;99.90
52943;DHT22;38809;53.300;6.614;2022-11-13T13:15:35;12.00;99.90
52943;DHT22;38809;53.300;6.614;2022-11-13T13:18:09;12.00;99.90
52943;DHT22;38809;53.300;6.614;2022-11-13T13:20:44;12.10;99.90
52943;DHT22;38809;53.300;6.614;2022-11-13T13:23:11;12.00;99.90
52943;DHT22;38809;53.300;6.614;2022-11-13T13:25:38;12.10;99.90
52943;DHT22;38809;53.300;6.614;2022-11-13T13:38:59;11.90;99.90
52943;DHT22;38809;53.300;6.614;2022-11-13T13:42:05;11.90;99.90
52943;DHT22;38809;53.300;6.614;2022-11-13T13:47:13;11.80;99.90
52943;DHT22;38809;53.300;6.614;2022-11-13T13:49:41;11.70;99.90
52943;DHT22;38809;53.300;6.614;2022-11-13T13:52:13;11.50;99.90
52943;DHT22;38809;53.300;6.614;2022-11-13T13:54:39;11.50;99.90
52943;DHT22;38809;53.300;6.614;2022-11-13T13:57:13;11.40;99.90
52943;DHT22;38809;53.300;6.614;2022-11-13T13:59:41;11.70;99.90
52943;DHT22;38809;53.300;6.614;2022-11-13T14:02:43;11.50;99.90
52943;DHT22;38809;53.300;6.614;2022-11-13T14:05:30;11.40;99.90
52943;DHT22;38809;53.300;6.614;2022-11-13T14:07:57;11.30;99.90
52943;DHT22;38809;53.300;6.614;2022-11-13T14:10:24;11.40;99.90
52943;DHT22;38809;53.300;6.614;2022-11-13T14:12:51;11.40;99.90
52943;DHT22;38809;53.300;6.614;2022-11-13T14:15:33;11.30;99.90
52943;DHT22;38809;53.300;6.614;2022-11-13T14:18:12;11.30;99.90
52943;DHT22;38809;53.300;6.614;2022-11-13T14:20:49;11.30;99.90
52943;DHT22;38809;53.300;6.614;2022-11-13T14:23:29;11.20;99.90
52943;DHT22;38809;53.300;6.614;2022-11-13T14:25:56;11.40;99.90
52943;DHT22;38809;53.300;6.614;2022-11-13T14:28:30;11.20;99.90
52943;DHT22;38809;53.300;6.614;2022-11-13T14:31:03;11.00;99.90
52943;DHT22;38809;53.300;6.614;2022-11-13T14:33:36;10.00;99.90
52943;DHT22;38809;53.300;6.614;2022-11-13T14:36:03;10.80;99.90
52943;DHT22;38809;53.300;6.614;2022-11-13T14:38:32;10.70;99.90
52943;DHT22;38809;53.300;6.614;2022-11-13T14:41:00;10.60;99.90
52943;DHT22;38809;53.300;6.614;2022-11-13T14:43:31;10.60;99.90
52943;DHT22;38809;53.300;6.614;2022-11-13T14:46:04;10.50;99.90
52943;DHT22;38809;53.300;6.614;2022-11-13T14:48:32;10.50;99.90
52943;DHT22;38809;53.300;6.614;2022-11-13T14:51:03;10.40;99.90
52943;DHT22;38809;53.300;6.614;2022-11-13T14:53:38;10.40;99.90
52943;DHT22;38809;53.300;6.614;2022-11-13T14:56:06;10.30;99.90
52943;DHT22;38809;53.300;6.614;2022-11-13T14:58:43;10.30;99.90
52943;DHT22;38809;53.300;6.614;2022-11-13T15:01:19;10.20;99.90
52943;DHT22;38809;53.300;6.614;2022-11-13T15:03:47;10.20;99.90
52943;DHT22;38809;53.300;6.614;2022-11-13T15:06:18;10.00;99.90
52943;DHT22;38809;53.300;6.614;2022-11-13T15:08:45;10.00;99.90
52943;DHT22;38809;53.300;6.614;2022-11-13T15:11:18;10.00;99.90
52943;DHT22;38809;53.300;6.614;2022-11-13T15:13:45;10.30;99.90
52943;DHT22;38809;53.300;6.614;2022-11-13T15:16:17;9.90;99.90
52943;DHT22;38809;53.300;6.614;2022-11-13T15:18:53;9.90;99.90
52943;DHT22;38809;53.300;6.614;2022-11-13T15:21:19;9.80;99.90
52943;DHT22;38809;53.300;6.614;2022-11-13T15:23:45;9.70;99.90
52943;DHT22;38809;53.300;6.614;2022-11-13T15:26:11;9.70;99.90
52943;DHT22;38809;53.300;6.614;2022-11-13T15:28:37;9.70;99.90
52943;DHT22;38809;53.300;6.614;2022-11-13T15:31:14;9.80;99.90
52943;DHT22;38809;53.300;6.614;2022-11-13T15:33:40;9.70;99.90
52943;DHT22;38809;53.300;6.614;2022-11-13T15:36:08;9.60;99.90
52943;DHT22;38809;53.300;6.614;2022-11-13T15:38:34;9.50;99.90
52943;DHT22;38809;53.300;6.614;2022-11-13T15:40:59;9.40;99.90
52943;DHT22;38809;53.300;6.614;2022-11-13T15:43:25;9.40;99.90
52943;DHT22;38809;53.300;6.614;2022-11-13T15:45:50;9.10;99.90
52943;DHT22;38809;53.300;6.614;2022-11-13T15:48:16;9.40;99.90
52943;DHT22;38809;53.300;6.614;2022-11-13T15:50:42;9.20;99.90
52943;DHT22;38809;53.300;6.614;2022-11-13T15:53:09;9.30;99.90
52943;DHT22;38809;53.300;6.614;2022-11-13T15:55:38;9.10;99.90
52943;DHT22;38809;53.300;6.614;2022-11-13T15:58:07;9.10;99.90
52943;DHT22;38809;53.300;6.614;2022-11-13T16:00:35;9.00;99.90
52943;DHT22;38809;53.300;6.614;2022-11-13T16:03:07;8.90;99.90
52943;DHT22;38809;53.300;6.614;2022-11-13T16:05:36;8.80;99.90
52943;DHT22;38809;53.300;6.614;2022-11-13T16:08:10;8.80;99.90
52943;DHT22;38809;53.300;6.614;2022-11-13T16:10:36;8.80;99.90
52943;DHT22;38809;53.300;6.614;2022-11-13T16:13:02;8.90;99.90
52943;DHT22;38809;53.300;6.614;2022-11-13T16:15:28;8.80;99.90
52943;DHT22;38809;53.300;6.614;2022-11-13T16:17:55;8.70;99.90
52943;DHT22;38809;53.300;6.614;2022-11-13T16:20:22;8.70;99.90
52943;DHT22;38809;53.300;6.614;2022-11-13T16:22:48;8.70;99.90
52943;DHT22;38809;53.300;6.614;2022-11-13T16:25:19;8.80;99.90
52943;DHT22;38809;53.300;6.614;2022-11-13T16:27:45;8.80;99.90
52943;DHT22;38809;53.300;6.614;2022-11-13T16:30:20;8.70;99.90
52943;DHT22;38809;53.300;6.614;2022-11-13T16:32:46;8.70;99.90
52943;DHT22;38809;53.300;6.614;2022-11-13T16:35:16;8.50;99.90
52943;DHT22;38809;53.300;6.614;2022-11-13T16:37:43;8.40;99.90
52943;DHT22;38809;53.300;6.614;2022-11-13T16:40:27;8.20;99.90
52943;DHT22;38809;53.300;6.614;2022-11-13T16:42:54;8.40;99.90
52943;DHT22;38809;53.300;6.614;2022-11-13T16:45:20;8.10;99.90
52943;DHT22;38809;53.300;6.614;2022-11-13T16:47:46;8.40;99.90
52943;DHT22;38809;53.300;6.614;2022-11-13T16:50:28;8.10;99.90
52943;DHT22;38809;53.300;6.614;2022-11-13T16:52:54;8.10;99.90
52943;DHT22;38809;53.300;6.614;2022-11-13T16:55:21;8.10;99.90
52943;DHT22;38809;53.300;6.614;2022-11-13T16:57:47;8.10;99.90
52943;DHT22;38809;53.300;6.614;2022-11-13T17:00:14;8.10;99.90
52943;DHT22;38809;53.300;6.614;2022-11-13T17:02:41;8.10;99.90
52943;DHT22;38809;53.300;6.614;2022-11-13T17:05:12;8.20;99.90
52943;DHT22;38809;53.300;6.614;2022-11-13T17:07:38;8.20;99.90
52943;DHT22;38809;53.300;6.614;2022-11-13T17:10:04;7.90;99.90
52943;DHT22;38809;53.300;6.614;2022-11-13T17:12:30;7.80;99.90
52943;DHT22;38809;53.300;6.614;2022-11-13T17:14:56;7.60;99.90
52943;DHT22;38809;53.300;6.614;2022-11-13T17:17:21;7.70;99.90
52943;DHT22;38809;53.300;6.614;2022-11-13T17:19:47;7.70;99.90
52943;DHT22;38809;53.300;6.614;2022-11-13T17:22:13;7.80;99.90